Time;durP1;ratioP1;P1;durP2;ratioP2;P2;SDS_P1;SDS_P2;PMS_P1;PMS_P2;Temp;Humidity;BMP_temperature;BMP_pressure;BME280_temperature;BME280_humidity;BME280_pressure;Samples;Min_cycle;Max_cycle;Signal;HPM_P1;HPM_P2
2023/10/10 00:00:04;;;;;;;16.48;14.20;;;16.70;81.20;;;;;;5052598;28;20540;-72
2023/10/10 00:02:38;;;;;;;15.85;13.70;;;16.70;81.20;;;;;;5053109;28;20033;-72
2023/10/10 00:05:05;;;;;;;15.23;13.43;;;16.70;81.20;;;;;;5052324;28;20032;-72
2023/10/10 00:07:30;;;;;;;14.60;12.57;;;16.70;81.30;;;;;;5049958;28;20514;-72
2023/10/10 00:09:59;;;;;;;14.00;12.45;;;16.70;81.30;;;;;;5054866;28;20033;-72
2023/10/10 00:12:30;;;;;;;13.88;12.55;;;16.70;81.40;;;;;;5054821;28;20504;-73
2023/10/10 00:15:01;;;;;;;13.82;12.45;;;16.70;81.40;;;;;;5053867;28;20106;-73
2023/10/10 00:17:34;;;;;;;13.75;12.30;;;16.70;81.40;;;;;;5052337;28;20210;-72
2023/10/10 00:20:35;;;;;;;13.75;12.25;;;16.70;81.40;;;;;;5056626;28;20028;-72
2023/10/10 00:23:04;;;;;;;12.40;11.10;;;16.70;81.50;;;;;;5058728;28;20419;-73
2023/10/10 00:25:30;;;;;;;11.80;10.60;;;16.70;81.50;;;;;;5055473;28;20036;-72
2023/10/10 00:28:01;;;;;;;11.43;10.32;;;16.60;81.30;;;;;;5052805;28;20063;-73
2023/10/10 00:30:35;;;;;;;10.10;9.10;;;16.60;81.40;;;;;;5056701;28;20096;-73
2023/10/10 00:33:03;;;;;;;11.70;10.50;;;16.70;81.60;;;;;;5057850;28;20115;-73
2023/10/10 00:35:31;;;;;;;11.63;10.43;;;16.70;81.60;;;;;;5055455;28;20033;-73
2023/10/10 00:38:05;;;;;;;11.25;10.15;;;16.60;81.40;;;;;;5054335;28;20044;-73
2023/10/10 00:40:39;;;;;;;9.77;8.48;;;16.60;81.40;;;;;;5058062;28;20033;-73
2023/10/10 00:43:15;;;;;;;9.27;8.38;;;16.70;81.60;;;;;;5051497;28;20052;-73
2023/10/10 00:45:52;;;;;;;9.55;8.65;;;16.60;81.40;;;;;;5052234;28;20148;-73
2023/10/10 00:48:23;;;;;;;8.68;7.88;;;16.60;81.40;;;;;;5052920;28;20492;-73
2023/10/10 00:51:05;;;;;;;7.57;6.88;;;16.70;81.60;;;;;;5055787;28;20067;-73
2023/10/10 00:53:37;;;;;;;7.43;6.80;;;16.60;81.40;;;;;;5054785;28;20063;-73
2023/10/10 00:56:07;;;;;;;7.03;6.43;;;16.60;81.40;;;;;;5031352;28;20383;-74
2023/10/10 00:58:37;;;;;;;7.40;6.80;;;16.60;81.40;;;;;;5055814;28;20052;-74
2023/10/10 01:01:14;;;;;;;7.05;6.45;;;16.60;81.40;;;;;;5056320;28;20089;-74
2023/10/10 01:03:45;;;;;;;6.20;5.70;;;16.60;81.40;;;;;;5056442;28;20032;-72
2023/10/10 01:06:39;;;;;;;6.53;5.90;;;16.60;81.40;;;;;;5068262;28;20041;-72
2023/10/10 01:09:03;;;;;;;6.97;6.38;;;16.60;81.40;;;;;;5063213;28;20436;-75
2023/10/10 01:11:30;;;;;;;6.18;5.68;;;16.60;81.40;;;;;;5060346;28;20408;-73
2023/10/10 01:14:00;;;;;;;6.70;6.00;;;16.60;81.50;;;;;;5053059;28;20079;-73
2023/10/10 01:16:27;;;;;;;6.75;5.68;;;16.60;81.50;;;;;;5058260;28;20055;-73
2023/10/10 01:18:59;;;;;;;6.70;6.10;;;16.60;81.50;;;;;;5036992;28;20024;-74
2023/10/10 01:21:42;;;;;;;5.85;5.35;;;16.60;81.50;;;;;;5054460;28;20040;-75
2023/10/10 01:24:08;;;;;;;7.43;5.85;;;16.60;81.50;;;;;;5061494;28;20510;-74
2023/10/10 01:26:38;;;;;;;7.03;6.43;;;16.60;81.50;;;;;;5056759;28;20037;-74
2023/10/10 01:29:27;;;;;;;6.45;5.85;;;16.60;81.60;;;;;;5058355;28;20032;-74
2023/10/10 01:31:54;;;;;;;8.40;6.30;;;16.50;81.40;;;;;;5057782;28;20439;-74
2023/10/10 01:34:30;;;;;;;7.10;6.40;;;16.50;81.40;;;;;;5055268;28;20037;-74
2023/10/10 01:37:03;;;;;;;6.53;5.90;;;16.50;81.50;;;;;;5056486;28;20032;-74
2023/10/10 01:40:14;;;;;;;8.40;6.03;;;16.60;81.70;;;;;;5056894;28;20033;-73
2023/10/10 01:42:59;;;;;;;7.70;6.57;;;16.50;81.60;;;;;;5057743;28;20032;-74
2023/10/10 01:45:29;;;;;;;7.95;6.80;;;16.50;81.50;;;;;;5060185;28;20497;-74
2023/10/10 01:48:02;;;;;;;7.28;6.57;;;16.50;81.50;;;;;;5052289;28;20032;-74
2023/10/10 01:50:30;;;;;;;;;;;16.50;81.60;;;;;;5037519;28;20037;-74
2023/10/10 01:52:57;;;;;;;6.97;6.28;;;16.50;81.60;;;;;;5051129;28;19908;-74
2023/10/10 01:55:24;;;;;;;8.55;7.25;;;16.50;81.40;;;;;;5051134;28;20519;-74
2023/10/10 01:57:51;;;;;;;9.70;7.70;;;16.50;81.50;;;;;;5059717;28;20052;-74
2023/10/10 02:00:26;;;;;;;8.43;7.53;;;16.50;81.60;;;;;;5051111;28;20516;-74
2023/10/10 02:02:53;;;;;;;8.93;8.07;;;16.50;81.60;;;;;;5052749;28;20028;-74
2023/10/10 02:08:04;;;;;;;9.00;8.10;;;16.50;81.70;;;;;;5056919;28;20503;-73
2023/10/10 02:10:45;;;;;;;8.38;7.57;;;16.50;81.80;;;;;;5057559;28;20067;-73
2023/10/10 02:13:12;;;;;;;8.68;7.78;;;16.50;81.90;;;;;;5050846;28;20025;-73
2023/10/10 02:15:39;;;;;;;8.52;7.57;;;16.50;81.90;;;;;;5057858;28;20052;-73
2023/10/10 02:18:12;;;;;;;9.77;8.40;;;16.50;82.00;;;;;;5057229;28;20099;-73
2023/10/10 02:25:55;;;;;;;9.57;8.68;;;16.50;82.10;;;;;;5058285;28;20376;-71
2023/10/10 02:28:30;;;;;;;9.02;8.20;;;16.50;82.10;;;;;;5052265;28;20037;-71
2023/10/10 02:31:03;;;;;;;10.38;9.38;;;16.50;82.10;;;;;;5059795;28;20194;-71
2023/10/10 02:33:31;;;;;;;10.32;9.30;;;16.50;82.10;;;;;;5050626;28;20076;-71
2023/10/10 02:35:58;;;;;;;10.50;9.50;;;16.50;82.10;;;;;;5060553;28;20370;-72
2023/10/10 02:38:39;;;;;;;10.90;9.65;;;16.50;82.10;;;;;;5059948;28;20506;-75
2023/10/10 02:44:09;;;;;;;11.23;10.10;;;16.50;82.20;;;;;;5057646;28;20082;-75
2023/10/10 02:46:38;;;;;;;10.98;9.95;;;16.60;82.40;;;;;;5052122;28;20519;-75
2023/10/10 02:49:12;;;;;;;10.48;9.38;;;16.50;82.20;;;;;;5052866;28;20039;-75
2023/10/10 02:51:43;;;;;;;11.85;10.65;;;16.50;82.30;;;;;;5054958;28;20330;-75
2023/10/10 02:57:26;;;;;;;11.90;10.70;;;16.50;82.30;;;;;;5054908;28;20033;-74
2023/10/10 02:59:50;;;;;;;12.95;11.43;;;16.50;82.80;;;;;;5047714;28;20044;-74
2023/10/10 03:02:28;;;;;;;13.98;12.05;;;16.50;82.30;;;;;;5053953;28;20032;-74
2023/10/10 03:07:29;;;;;;;13.80;12.23;;;16.60;82.50;;;;;;5070223;28;20099;-74
2023/10/10 03:12:41;;;;;;;14.13;12.63;;;16.60;82.60;;;;;;5053418;28;20135;-74
2023/10/10 03:15:15;;;;;;;15.93;13.73;;;16.60;82.60;;;;;;5057309;28;20424;-74
2023/10/10 03:17:48;;;;;;;15.20;13.73;;;16.60;82.60;;;;;;5040328;28;20029;-74
2023/10/10 03:25:54;;;;;;;16.55;14.90;;;16.60;82.80;;;;;;5061066;28;20071;-74
2023/10/10 03:31:24;;;;;;;17.92;15.57;;;16.50;82.60;;;;;;5057449;28;20035;-75
2023/10/10 03:34:05;;;;;;;15.32;13.77;;;16.60;82.90;;;;;;5061705;28;20451;-75
2023/10/10 03:36:39;;;;;;;15.60;13.93;;;16.60;82.90;;;;;;5060781;28;20036;-74
2023/10/10 03:39:23;;;;;;;15.65;14.05;;;16.50;82.70;;;;;;5054846;28;20033;-75
2023/10/10 05:23:34;;;;;;;22.88;20.23;;;16.50;83.20;;;;;;5077576;28;20048;-77
2023/10/10 05:26:02;;;;;;;26.15;22.45;;;16.50;83.20;;;;;;5060180;28;20513;-77
2023/10/10 05:28:32;;;;;;;27.05;22.20;;;16.50;83.20;;;;;;5041328;28;20063;-77
2023/10/10 05:30:59;;;;;;;28.40;22.02;;;16.50;83.20;;;;;;5053772;28;20028;-77
2023/10/10 05:33:30;;;;;;;28.58;21.30;;;16.40;83.10;;;;;;5059539;28;20036;-78
2023/10/10 05:36:06;;;;;;;24.73;21.05;;;16.50;83.30;;;;;;5056653;28;20105;-78
2023/10/10 05:38:39;;;;;;;30.33;22.70;;;16.50;83.50;;;;;;5066253;28;20491;-77
2023/10/10 05:41:06;;;;;;;27.13;22.13;;;16.40;83.40;;;;;;5048340;28;20032;-77
2023/10/10 05:43:33;;;;;;;27.98;22.33;;;16.50;83.80;;;;;;5063744;28;20039;-76
2023/10/10 05:46:01;;;;;;;29.58;22.83;;;16.40;83.50;;;;;;5055620;28;20370;-76
2023/10/10 05:48:27;;;;;;;26.02;22.20;;;16.40;83.50;;;;;;5052808;28;20063;-75
2023/10/10 05:50:57;;;;;;;24.98;21.23;;;16.40;83.60;;;;;;5056405;28;20506;-76
2023/10/10 05:53:24;;;;;;;25.45;21.65;;;16.50;83.90;;;;;;5061360;28;20051;-76
2023/10/10 05:55:57;;;;;;;25.85;21.30;;;16.50;84.00;;;;;;5057162;28;20025;-76
2023/10/10 05:58:23;;;;;;;27.20;21.48;;;16.50;84.00;;;;;;5056367;28;20505;-76
2023/10/10 06:00:49;;;;;;;28.80;22.50;;;16.50;83.90;;;;;;5054369;28;20055;-77
2023/10/10 06:03:18;;;;;;;30.17;22.10;;;16.50;83.90;;;;;;5038474;28;20036;-77
2023/10/10 06:05:45;;;;;;;28.48;21.25;;;16.60;84.10;;;;;;5058871;28;20036;-76
2023/10/10 06:08:12;;;;;;;32.85;23.88;;;16.60;84.10;;;;;;5057211;28;20343;-76
2023/10/10 06:10:39;;;;;;;32.63;23.02;;;16.50;83.90;;;;;;5060728;28;20183;-77
2023/10/10 06:13:06;;;;;;;30.48;21.65;;;16.60;84.10;;;;;;5051711;28;20033;-78
2023/10/10 06:15:34;;;;;;;32.60;21.85;;;16.60;84.30;;;;;;5047103;28;20028;-80
2023/10/10 06:18:13;;;;;;;30.38;20.80;;;16.70;84.70;;;;;;5053066;28;20108;-78
2023/10/10 06:20:47;;;;;;;29.10;20.05;;;16.70;84.80;;;;;;5053203;28;21447;-79
2023/10/10 06:23:20;;;;;;;26.45;20.60;;;16.70;84.90;;;;;;5054278;28;20031;-79
2023/10/10 06:25:47;;;;;;;27.92;20.70;;;16.80;85.00;;;;;;5048976;28;20408;-78
2023/10/10 06:28:22;;;;;;;30.20;20.40;;;16.90;85.30;;;;;;5041386;28;20348;-78
2023/10/10 06:30:52;;;;;;;29.05;20.48;;;16.90;85.30;;;;;;5048717;28;20036;-78
2023/10/10 06:33:27;;;;;;;26.80;19.55;;;17.00;85.50;;;;;;5053316;28;20044;-78
2023/10/10 06:38:59;;;;;;;25.77;19.80;;;17.00;85.60;;;;;;5056461;28;20028;-78
2023/10/10 06:41:27;;;;;;;30.20;21.73;;;17.10;85.60;;;;;;5056565;28;20043;-78
2023/10/10 06:43:54;;;;;;;25.25;20.27;;;17.10;85.60;;;;;;5058797;28;20038;-77
2023/10/10 06:46:23;;;;;;;26.50;20.27;;;17.10;85.60;;;;;;5056597;28;20039;-77
2023/10/10 06:48:50;;;;;;;26.30;20.85;;;17.20;85.80;;;;;;5058535;28;20041;-78
2023/10/10 06:51:22;;;;;;;25.58;20.17;;;17.20;85.80;;;;;;5071379;28;20102;-78
2023/10/10 06:53:54;;;;;;;24.55;19.77;;;17.20;85.80;;;;;;5054190;28;20067;-78
2023/10/10 06:56:43;;;;;;;24.63;18.80;;;17.30;86.40;;;;;;5052620;28;20095;-79
2023/10/10 06:59:06;;;;;;;26.45;19.35;;;17.30;85.90;;;;;;5054916;28;20054;-79
2023/10/10 07:01:32;;;;;;;25.10;19.42;;;17.30;85.80;;;;;;5054677;28;20025;-79
2023/10/10 07:04:03;;;;;;;27.00;20.33;;;17.30;85.80;;;;;;5056113;28;20522;-78
2023/10/10 07:06:29;;;;;;;25.85;20.42;;;17.40;85.90;;;;;;5055867;28;20144;-78
2023/10/10 07:11:43;;;;;;;22.83;19.08;;;17.50;86.00;;;;;;5056064;28;20044;-80
2023/10/10 07:14:10;;;;;;;23.58;19.90;;;17.50;85.80;;;;;;5054381;28;20028;-78
2023/10/10 07:16:42;;;;;;;23.83;19.27;;;17.50;85.80;;;;;;5051539;28;20040;-78
2023/10/10 07:19:31;;;;;;;26.25;19.23;;;17.50;85.70;;;;;;5048993;28;20032;-77
2023/10/10 07:21:59;;;;;;;24.55;19.00;;;17.60;85.80;;;;;;5059542;28;20202;-79
2023/10/10 07:24:28;;;;;;;24.27;19.52;;;17.60;85.70;;;;;;5052359;28;20029;-78
2023/10/10 07:32:29;;;;;;;25.58;19.67;;;17.70;85.70;;;;;;5056598;28;20037;-79
2023/10/10 07:34:55;;;;;;;24.20;20.45;;;17.70;85.60;;;;;;5053844;28;20116;-77
2023/10/10 07:37:28;;;;;;;25.40;19.20;;;17.70;85.60;;;;;;5049495;28;20071;-79
2023/10/10 07:40:19;;;;;;;25.05;20.52;;;17.80;85.60;;;;;;5055534;28;20443;-77
2023/10/10 07:42:57;;;;;;;;;;;17.80;85.60;;;;;;5031758;28;20033;-77
2023/10/10 07:45:33;;;;;;;21.13;18.45;;;17.80;85.50;;;;;;5036644;28;20269;-79
2023/10/10 07:50:36;;;;;;;26.23;20.83;;;17.80;85.20;;;;;;5028324;28;20558;-77
2023/10/10 07:53:05;;;;;;;21.08;18.15;;;17.90;85.40;;;;;;5034257;28;20076;-76
2023/10/10 07:55:51;;;;;;;24.20;20.33;;;17.90;85.30;;;;;;5029987;28;20184;-77
2023/10/10 07:58:17;;;;;;;22.40;20.00;;;17.90;85.20;;;;;;5031052;28;20076;-77
2023/10/10 08:00:44;;;;;;;26.70;20.85;;;18.00;85.30;;;;;;5038542;28;20064;-76
2023/10/10 08:03:20;;;;;;;22.92;19.55;;;18.00;85.20;;;;;;5032353;28;20544;-78
2023/10/10 08:05:48;;;;;;;22.70;20.08;;;18.00;85.10;;;;;;5030655;28;20030;-77
2023/10/10 08:08:18;;;;;;;23.15;20.00;;;18.10;85.20;;;;;;5017925;28;20033;-77
2023/10/10 08:10:49;;;;;;;24.02;21.42;;;18.10;85.10;;;;;;5028483;28;20033;-77
2023/10/10 08:13:20;;;;;;;24.98;20.42;;;18.10;85.00;;;;;;5032555;28;20033;-78
2023/10/10 08:23:32;;;;;;;24.05;19.98;;;18.20;84.80;;;;;;5033563;28;20033;-78
2023/10/10 08:25:58;;;;;;;21.70;18.15;;;18.20;84.70;;;;;;5028981;28;20112;-77
2023/10/10 08:28:25;;;;;;;22.00;18.30;;;18.20;84.60;;;;;;5029161;28;20043;-78
2023/10/10 08:30:52;;;;;;;24.15;17.50;;;18.30;84.70;;;;;;5027096;28;20413;-78
2023/10/10 08:33:21;;;;;;;19.63;17.40;;;18.30;84.60;;;;;;5063399;28;20044;-78
2023/10/10 08:35:47;;;;;;;17.08;15.10;;;18.30;84.50;;;;;;5024691;28;20021;-77
2023/10/10 08:38:13;;;;;;;19.98;17.48;;;18.30;84.40;;;;;;5027716;28;20038;-77
2023/10/10 08:40:40;;;;;;;22.20;16.95;;;18.30;84.30;;;;;;5033678;28;20447;-78
2023/10/10 08:43:09;;;;;;;16.85;14.77;;;18.40;84.40;;;;;;5032387;28;20056;-78
2023/10/10 08:45:43;;;;;;;17.48;15.43;;;18.40;84.40;;;;;;5027126;28;20095;-77
2023/10/10 08:48:15;;;;;;;16.60;14.48;;;18.40;84.30;;;;;;5030967;28;20083;-78
2023/10/10 08:50:44;;;;;;;17.38;14.98;;;18.40;84.20;;;;;;5022860;28;20045;-78
2023/10/10 08:53:12;;;;;;;18.63;14.88;;;18.40;84.10;;;;;;5021992;28;20119;-77
2023/10/10 08:55:40;;;;;;;17.10;15.18;;;18.40;84.10;;;;;;5019127;28;20041;-78
2023/10/10 08:58:07;;;;;;;17.75;15.27;;;18.50;84.20;;;;;;5023288;28;20062;-77
2023/10/10 09:00:34;;;;;;;16.75;14.95;;;18.50;84.70;;;;;;5019496;28;20025;-78
2023/10/10 09:03:00;;;;;;;18.90;16.02;;;18.50;84.10;;;;;;5018531;28;20167;-78
2023/10/10 09:05:28;;;;;;;18.92;15.90;;;18.50;84.00;;;;;;5012569;28;20116;-78
2023/10/10 09:07:55;;;;;;;19.52;16.63;;;18.50;83.90;;;;;;5018462;28;20526;-77
2023/10/10 09:10:39;;;;;;;20.35;16.58;;;18.50;83.90;;;;;;5023247;28;20037;-78
2023/10/10 09:13:07;;;;;;;19.02;16.05;;;18.60;84.00;;;;;;5016125;28;20446;-78
2023/10/10 09:15:34;;;;;;;20.98;16.70;;;18.60;83.90;;;;;;5009303;28;20033;-77
2023/10/10 09:18:22;;;;;;;20.52;18.20;;;18.60;83.80;;;;;;5010153;28;20042;-77
2023/10/10 09:20:48;;;;;;;22.15;17.17;;;18.60;83.70;;;;;;5021102;28;20049;-78
2023/10/10 09:23:31;;;;;;;19.85;15.88;;;18.70;83.80;;;;;;5020068;28;20387;-77
2023/10/10 09:26:29;;;;;;;17.60;15.70;;;18.70;83.70;;;;;;5015472;28;20493;-78
2023/10/10 09:28:56;;;;;;;20.33;18.17;;;18.70;83.60;;;;;;5018282;28;20090;-78
2023/10/10 09:31:31;;;;;;;21.02;17.15;;;18.70;83.40;;;;;;5017929;28;20401;-77
2023/10/10 09:34:03;;;;;;;21.50;16.45;;;18.70;83.40;;;;;;5023037;28;20038;-78
2023/10/10 09:36:37;;;;;;;18.08;16.23;;;18.70;83.30;;;;;;5015314;28;20503;-77
2023/10/10 09:39:08;;;;;;;20.00;16.80;;;18.80;83.40;;;;;;5016275;28;20061;-77
2023/10/10 09:50:00;;;;;;;21.10;16.45;;;18.80;83.00;;;;;;5016314;28;20034;-76
2023/10/10 09:52:49;;;;;;;18.92;15.80;;;18.80;82.90;;;;;;5013987;28;20124;-77
2023/10/10 09:58:00;;;;;;;19.05;15.80;;;18.90;83.40;;;;;;5013046;28;20040;-78
2023/10/10 10:03:31;;;;;;;17.48;15.57;;;19.00;82.80;;;;;;5012172;28;20515;-77
2023/10/10 10:09:32;;;;;;;18.50;15.60;;;19.10;82.70;;;;;;5019771;28;20540;-78
2023/10/10 10:12:32;;;;;;;16.25;14.55;;;19.10;82.50;;;;;;5013608;28;20320;-78
2023/10/10 10:15:20;;;;;;;16.35;14.25;;;19.10;82.40;;;;;;4997085;28;20033;-78
2023/10/10 10:21:14;;;;;;;15.80;14.07;;;19.30;82.30;;;;;;5016047;28;20073;-78
2023/10/10 10:23:45;;;;;;;16.77;14.52;;;19.40;82.30;;;;;;5014295;28;20037;-78
2023/10/10 10:26:21;;;;;;;16.45;14.65;;;19.40;82.00;;;;;;5009271;28;20060;-78
2023/10/10 10:28:56;;;;;;;15.88;14.10;;;19.50;82.00;;;;;;5010943;28;20111;-78
2023/10/10 10:31:28;;;;;;;15.75;14.02;;;19.60;81.90;;;;;;5014358;28;20037;-77
2023/10/10 10:34:10;;;;;;;16.77;13.20;;;19.60;81.70;;;;;;5014707;28;20515;-78
2023/10/10 10:36:44;;;;;;;17.08;15.27;;;19.70;81.60;;;;;;5012725;28;20291;-79
2023/10/10 10:39:35;;;;;;;16.92;13.88;;;19.70;81.40;;;;;;5012940;28;20052;-77
2023/10/10 10:42:11;;;;;;;14.57;12.95;;;19.80;81.40;;;;;;5043370;28;20034;-77
2023/10/10 10:44:53;;;;;;;16.10;12.68;;;19.80;81.30;;;;;;5014865;28;20037;-77
2023/10/10 10:47:47;;;;;;;20.20;14.27;;;19.90;81.30;;;;;;5024091;28;20445;-76
2023/10/10 10:50:40;;;;;;;16.27;13.60;;;19.90;81.10;;;;;;5009416;28;20381;-78
2023/10/10 10:53:20;;;;;;;;;;;20.00;81.10;;;;;;5021314;28;20055;-77
2023/10/10 10:56:06;;;;;;;14.07;11.93;;;20.10;81.20;;;;;;5013014;28;19913;-76
2023/10/10 10:58:47;;;;;;;14.10;12.60;;;20.20;81.10;;;;;;5015487;28;20527;-78
2023/10/10 11:01:17;;;;;;;14.80;13.30;;;20.30;80.80;;;;;;5012511;28;20396;-77
2023/10/10 11:03:44;;;;;;;14.00;12.50;;;20.50;80.70;;;;;;5017399;28;20021;-78
2023/10/10 11:06:14;;;;;;;13.60;12.15;;;20.70;80.70;;;;;;5010637;28;20554;-78
2023/10/10 11:16:56;;;;;;;13.00;11.70;;;21.10;79.80;;;;;;5012576;28;20033;-77
2023/10/10 11:19:38;;;;;;;13.88;12.38;;;21.20;79.70;;;;;;5009906;28;20045;-77
2023/10/10 11:22:05;;;;;;;12.67;11.37;;;21.20;79.50;;;;;;5012091;28;20105;-79
2023/10/10 11:24:34;;;;;;;13.68;11.13;;;21.30;79.40;;;;;;5012319;28;20052;-78
2023/10/10 11:29:50;;;;;;;15.95;12.13;;;21.50;79.10;;;;;;5014593;28;20431;-77
2023/10/10 11:32:29;;;;;;;14.05;12.65;;;21.60;78.90;;;;;;5008260;28;20543;-78
2023/10/10 11:35:17;;;;;;;12.98;11.77;;;21.60;78.80;;;;;;5021560;28;20029;-77
2023/10/10 11:37:59;;;;;;;12.88;11.55;;;21.60;78.50;;;;;;5014667;28;20091;-77
2023/10/10 11:42:56;;;;;;;11.50;9.27;;;21.90;78.60;;;;;;5021777;28;20037;-79
2023/10/10 11:45:26;;;;;;;10.73;8.95;;;22.00;78.40;;;;;;5016431;28;20373;-77
2023/10/10 11:47:53;;;;;;;11.20;8.60;;;22.10;78.10;;;;;;5017109;28;20457;-77
2023/10/10 11:50:29;;;;;;;9.23;8.32;;;22.30;78.10;;;;;;5014587;28;20053;-79
2023/10/10 11:52:56;;;;;;;8.93;7.95;;;22.50;77.90;;;;;;5019638;28;20077;-78
2023/10/10 11:55:26;;;;;;;8.48;7.55;;;22.60;77.60;;;;;;4997501;28;20645;-78
2023/10/10 11:58:06;;;;;;;7.25;6.60;;;22.70;77.20;;;;;;5017180;28;20033;-78
2023/10/10 12:00:44;;;;;;;9.68;7.30;;;22.80;77.00;;;;;;5010404;28;20083;-78
2023/10/10 12:03:32;;;;;;;7.13;6.40;;;22.90;76.90;;;;;;5015964;28;20361;-79
2023/10/10 12:05:59;;;;;;;10.57;8.77;;;23.00;76.80;;;;;;5013024;28;20079;-79
2023/10/10 12:08:26;;;;;;;6.85;6.18;;;23.00;76.50;;;;;;5019544;28;20029;-78
2023/10/10 12:11:04;;;;;;;7.22;6.53;;;23.20;76.50;;;;;;5022512;28;20037;-77
2023/10/10 12:16:07;;;;;;;8.75;5.20;;;23.30;76.00;;;;;;5007902;28;20037;-78
2023/10/10 12:18:35;;;;;;;10.82;6.03;;;23.30;75.60;;;;;;5025221;28;20156;-78
2023/10/10 12:21:02;;;;;;;7.30;5.63;;;23.30;75.50;;;;;;5019436;28;20493;-78
2023/10/10 12:23:31;;;;;;;6.60;5.80;;;23.20;75.30;;;;;;5019896;28;20045;-80
2023/10/10 12:26:02;;;;;;;5.97;5.18;;;23.20;75.20;;;;;;5024451;28;20022;-78
2023/10/10 12:28:29;;;;;;;6.00;5.45;;;23.20;75.20;;;;;;5025247;28;20040;-79
2023/10/10 12:31:03;;;;;;;7.32;5.38;;;23.10;75.10;;;;;;5021100;28;20029;-78
2023/10/10 12:33:29;;;;;;;8.55;4.93;;;23.10;75.00;;;;;;5011157;28;20048;-78
2023/10/10 12:35:56;;;;;;;7.57;5.30;;;23.10;74.90;;;;;;5016122;28;20026;-78
2023/10/10 12:38:23;;;;;;;6.95;5.20;;;23.20;74.90;;;;;;5013650;28;20076;-78
2023/10/10 12:40:53;;;;;;;5.60;4.97;;;23.20;74.70;;;;;;5023099;28;20329;-79
2023/10/10 12:43:25;;;;;;;7.80;5.60;;;23.20;74.40;;;;;;5019021;28;20661;-78
2023/10/10 12:45:54;;;;;;;6.15;5.15;;;23.20;74.30;;;;;;5017795;28;20045;-78
2023/10/10 12:48:20;;;;;;;6.00;5.40;;;23.30;74.30;;;;;;5003880;28;20048;-79
2023/10/10 12:50:48;;;;;;;6.53;5.25;;;23.30;74.10;;;;;;5017453;28;20553;-79
2023/10/10 12:53:15;;;;;;;5.15;4.65;;;23.40;74.10;;;;;;5019804;28;20135;-79
2023/10/10 12:55:52;;;;;;;6.05;5.43;;;23.40;73.80;;;;;;5017428;28;20091;-77
2023/10/10 12:58:20;;;;;;;5.97;5.40;;;23.40;73.60;;;;;;5024199;28;20046;-80
2023/10/10 13:00:51;;;;;;;6.40;5.05;;;23.50;73.60;;;;;;5017338;28;20041;-78
2023/10/10 13:03:37;;;;;;;6.43;4.95;;;23.50;73.30;;;;;;5025901;28;20084;-78
2023/10/10 13:06:04;;;;;;;7.72;4.90;;;23.50;73.10;;;;;;5021721;28;20497;-78
2023/10/10 13:11:20;;;;;;;5.40;4.90;;;23.60;73.20;;;;;;5015200;28;20041;-78
2023/10/10 13:13:56;;;;;;;6.78;4.85;;;23.70;73.20;;;;;;5026828;28;20128;-78
2023/10/10 13:18:54;;;;;;;6.43;4.82;;;23.90;73.00;;;;;;5021108;28;20535;-78
2023/10/10 13:21:21;;;;;;;5.47;4.97;;;23.90;72.80;;;;;;5017301;28;20077;-78
2023/10/10 13:23:48;;;;;;;5.38;4.85;;;23.90;72.60;;;;;;5020147;28;20030;-76
2023/10/10 13:26:16;;;;;;;5.32;4.65;;;23.90;72.50;;;;;;5014948;28;20030;-78
2023/10/10 13:28:45;;;;;;;6.35;4.93;;;23.90;72.40;;;;;;5027848;28;20672;-78
2023/10/10 13:31:12;;;;;;;5.72;5.32;;;23.90;72.20;;;;;;5016829;28;20036;-78
2023/10/10 13:33:39;;;;;;;5.18;4.78;;;23.90;72.10;;;;;;5024112;28;20064;-78
2023/10/10 13:36:08;;;;;;;5.97;5.32;;;23.90;72.10;;;;;;5001604;28;20030;-79
2023/10/10 13:38:35;;;;;;;5.63;5.05;;;23.90;72.00;;;;;;5017053;28;20062;-78
2023/10/10 13:41:03;;;;;;;5.53;4.90;;;23.90;71.90;;;;;;5017185;28;20053;-77
2023/10/10 13:43:29;;;;;;;5.13;4.72;;;23.90;71.80;;;;;;5020282;28;20061;-78
2023/10/10 13:45:57;;;;;;;6.90;6.28;;;23.90;71.80;;;;;;5025315;28;20117;-79
2023/10/10 13:48:27;;;;;;;5.50;5.00;;;23.90;71.70;;;;;;5019984;28;20480;-78
2023/10/10 13:50:56;;;;;;;6.45;5.32;;;23.90;71.70;;;;;;5012590;28;20046;-78
2023/10/10 13:53:23;;;;;;;6.30;5.70;;;23.90;71.60;;;;;;5020126;28;20512;-78
2023/10/10 13:55:50;;;;;;;6.43;5.82;;;23.90;71.60;;;;;;5020478;28;20029;-78
2023/10/10 13:58:17;;;;;;;7.50;6.57;;;23.90;71.50;;;;;;5012684;28;20044;-78
2023/10/10 14:00:55;;;;;;;6.43;5.93;;;23.90;71.40;;;;;;5013353;28;20705;-78
2023/10/10 14:03:34;;;;;;;6.68;5.80;;;23.90;71.30;;;;;;5017410;28;20045;-79
2023/10/10 14:06:04;;;;;;;6.90;6.30;;;23.90;71.20;;;;;;5018616;28;20041;-78
2023/10/10 14:08:30;;;;;;;7.53;6.72;;;24.00;71.40;;;;;;5014602;28;20145;-78
2023/10/10 14:11:00;;;;;;;7.25;6.55;;;23.90;71.20;;;;;;5016407;28;20041;-78
2023/10/10 14:13:28;;;;;;;7.97;7.28;;;23.90;71.20;;;;;;5016984;28;20385;-78
2023/10/10 14:15:55;;;;;;;8.27;7.55;;;23.90;71.20;;;;;;5009520;28;20032;-77
2023/10/10 14:18:26;;;;;;;9.30;7.78;;;24.00;71.70;;;;;;5002544;28;20037;-78
2023/10/10 14:20:53;;;;;;;8.65;7.85;;;24.00;71.10;;;;;;5013338;28;20443;-78
2023/10/10 14:23:24;;;;;;;8.15;7.45;;;24.00;71.10;;;;;;5017761;28;20032;-78
2023/10/10 14:25:50;;;;;;;8.80;8.00;;;24.10;71.10;;;;;;5017942;28;20132;-78
2023/10/10 14:28:18;;;;;;;11.15;8.70;;;24.10;71.10;;;;;;5014517;28;20476;-79
2023/10/10 14:30:51;;;;;;;9.02;8.13;;;24.10;71.00;;;;;;5014510;28;20041;-79
2023/10/10 14:33:17;;;;;;;;;;;24.10;71.00;;;;;;5017684;28;20033;-78
2023/10/10 14:35:44;;;;;;;9.57;8.35;;;24.10;71.10;;;;;;5015335;28;19959;-79
2023/10/10 14:38:15;;;;;;;8.68;7.78;;;24.00;71.00;;;;;;5015557;28;20057;-79
2023/10/10 14:40:45;;;;;;;8.32;7.47;;;24.00;71.00;;;;;;5019922;28;20377;-77
2023/10/10 14:43:11;;;;;;;8.82;8.02;;;24.00;71.00;;;;;;5015380;28;20037;-78
2023/10/10 14:45:43;;;;;;;9.05;8.00;;;23.90;70.90;;;;;;5015508;28;20037;-78
2023/10/10 14:48:18;;;;;;;9.60;8.63;;;23.90;70.90;;;;;;5021758;28;20459;-78
2023/10/10 14:50:52;;;;;;;9.52;8.65;;;23.90;70.90;;;;;;5012314;28;20045;-77
2023/10/10 14:53:24;;;;;;;8.88;8.15;;;23.80;70.80;;;;;;5013240;28;20041;-78
2023/10/10 14:55:53;;;;;;;8.68;7.93;;;23.80;70.90;;;;;;5016613;28;20041;-77
2023/10/10 14:58:22;;;;;;;9.07;8.07;;;23.70;70.80;;;;;;5014554;28;20124;-78
2023/10/10 15:00:56;;;;;;;8.77;7.97;;;23.70;70.90;;;;;;5018887;28;20495;-78
2023/10/10 15:03:25;;;;;;;9.48;8.40;;;23.70;71.00;;;;;;5014224;28;20079;-78
2023/10/10 15:05:51;;;;;;;9.57;8.57;;;23.70;71.10;;;;;;5014970;28;20041;-78
2023/10/10 15:08:22;;;;;;;9.02;8.23;;;23.60;70.90;;;;;;5011096;28;20377;-79
2023/10/10 15:10:53;;;;;;;9.30;8.07;;;23.60;71.00;;;;;;5016439;28;20021;-77
2023/10/10 15:13:19;;;;;;;9.60;8.70;;;23.60;71.00;;;;;;5020811;28;20727;-78
2023/10/10 15:15:46;;;;;;;9.70;8.85;;;23.60;71.10;;;;;;5014394;28;20029;-77
2023/10/10 15:18:13;;;;;;;9.35;8.45;;;23.50;71.00;;;;;;5012623;28;20440;-80
2023/10/10 15:20:45;;;;;;;7.88;7.18;;;23.50;71.00;;;;;;5019145;28;20032;-80
2023/10/10 15:23:18;;;;;;;8.18;7.38;;;23.50;71.10;;;;;;5023359;28;20040;-81
2023/10/10 15:25:54;;;;;;;8.50;7.68;;;23.50;71.10;;;;;;5017621;28;20037;-81
2023/10/10 15:28:22;;;;;;;8.55;7.65;;;23.40;70.80;;;;;;5017942;28;20350;-80
2023/10/10 15:30:48;;;;;;;8.45;7.72;;;23.40;71.00;;;;;;5016831;28;20448;-79
2023/10/10 15:33:17;;;;;;;8.32;7.53;;;23.40;71.00;;;;;;5012383;28;20033;-78
2023/10/10 15:35:49;;;;;;;8.80;7.88;;;23.30;70.80;;;;;;5012123;28;20030;-79
2023/10/10 15:38:19;;;;;;;8.57;7.18;;;23.30;70.90;;;;;;5014299;28;20084;-78
2023/10/10 15:40:46;;;;;;;7.75;7.05;;;23.30;70.90;;;;;;5020393;28;20358;-76
2023/10/10 15:43:12;;;;;;;7.95;7.18;;;23.20;70.80;;;;;;5013560;28;20037;-77
2023/10/10 15:45:44;;;;;;;7.75;7.05;;;23.20;71.00;;;;;;5012545;28;20048;-77
2023/10/10 15:48:23;;;;;;;8.38;7.47;;;23.20;70.90;;;;;;4995368;28;20120;-78
2023/10/10 15:50:57;;;;;;;8.80;8.00;;;23.10;70.80;;;;;;5014662;28;20120;-78
2023/10/10 15:53:27;;;;;;;8.23;7.35;;;23.00;70.70;;;;;;5015762;28;20029;-78
2023/10/10 15:56:13;;;;;;;10.20;7.50;;;23.00;70.80;;;;;;5016136;28;20033;-78
2023/10/10 15:58:51;;;;;;;8.05;7.32;;;23.00;70.80;;;;;;5015517;28;20049;-77
2023/10/10 16:01:22;;;;;;;10.98;7.35;;;22.90;70.80;;;;;;5019904;28;20372;-77
2023/10/10 16:04:13;;;;;;;7.35;6.53;;;22.90;70.90;;;;;;5020777;28;20029;-78
2023/10/10 16:06:50;;;;;;;7.95;7.15;;;22.80;70.80;;;;;;5011912;28;20045;-77
2023/10/10 16:09:31;;;;;;;8.70;6.78;;;22.70;70.80;;;;;;5028575;28;20419;-78
2023/10/10 16:11:57;;;;;;;8.63;7.82;;;22.70;70.90;;;;;;5014117;28;20037;-78
2023/10/10 16:14:25;;;;;;;8.13;7.32;;;22.60;70.80;;;;;;5017580;28;20040;-78